createdAt,value
2022-09-09T00:01:16.234Z,99028.50
2022-09-09T00:03:24.734Z,99025.75
2022-09-09T00:05:38.780Z,99032.53
2022-09-09T00:07:48.590Z,99030.91
2022-09-09T00:10:00.326Z,99036.38
2022-09-09T00:12:12.083Z,99035.41
2022-09-09T00:14:29.632Z,99042.94
2022-09-09T00:16:37.920Z,99047.91
2022-09-09T00:18:55.946Z,99036.38
2022-09-09T00:21:09.034Z,99045.38
2022-09-09T00:23:25.827Z,99046.97
2022-09-09T00:25:54.348Z,99051.25
2022-09-09T00:27:57.573Z,99048.03
2022-09-09T00:30:02.944Z,99041.13
2022-09-09T00:32:18.554Z,99046.59
2022-09-09T00:34:25.751Z,99041.59
2022-09-09T00:36:30.206Z,99042.75
2022-09-09T00:38:37.660Z,99049.81
2022-09-09T00:40:51.323Z,99052.06
2022-09-09T00:43:26.801Z,99046.44
2022-09-09T00:45:44.180Z,99050.47
2022-09-09T00:47:51.416Z,99056.72
2022-09-09T00:50:01.442Z,99054.50
2022-09-09T00:52:28.498Z,99057.53
2022-09-09T00:54:39.256Z,99057.53
2022-09-09T00:57:05.693Z,99053.50
2022-09-09T00:59:41.096Z,99061.69
2022-09-09T01:01:43.721Z,99058.97
2022-09-09T01:03:56.281Z,99059.78
2022-09-09T01:06:01.659Z,99061.41
2022-09-09T01:08:26.412Z,99067.06
2022-09-09T01:10:37.969Z,99063.50
2022-09-09T01:12:44.845Z,99068.47
2022-09-09T01:14:53.245Z,99054.63
2022-09-09T01:17:19.736Z,99065.38
2022-09-09T01:19:42.158Z,99063.47
2022-09-09T01:22:03.066Z,99064.91
2022-09-09T01:24:14.766Z,99070.69
2022-09-09T01:26:22.952Z,99069.41
2022-09-09T01:28:28.341Z,99068.91
2022-09-09T01:30:40.587Z,99076.09
2022-09-09T01:32:51.536Z,99072.38
2022-09-09T01:34:54.149Z,99074.00
2022-09-09T01:37:05.882Z,99073.50
2022-09-09T01:39:08.565Z,99074.31
2022-09-09T01:41:11.279Z,99081.22
2022-09-09T01:43:14.568Z,99079.78
2022-09-09T01:45:17.277Z,99074.31
2022-09-09T01:47:21.128Z,99076.09
2022-09-09T01:49:24.129Z,99080.06
2022-09-09T01:51:26.872Z,99081.28
2022-09-09T01:53:29.413Z,99080.31
2022-09-09T01:55:40.773Z,99078.69
2022-09-09T01:57:56.057Z,99077.69
2022-09-09T02:00:15.361Z,99075.16
2022-09-09T02:02:33.570Z,99077.81
2022-09-09T02:04:51.034Z,99081.69
2022-09-09T02:06:58.306Z,99084.09
2022-09-09T02:09:05.760Z,99072.56
2022-09-09T02:11:15.221Z,99080.13
2022-09-09T02:13:21.351Z,99087.69
2022-09-09T02:15:31.631Z,99097.03
2022-09-09T02:17:39.494Z,99092.38
2022-09-09T02:19:53.485Z,99095.72
2022-09-09T02:21:58.773Z,99092.06
2022-09-09T02:24:05.720Z,99097.19
2022-09-09T02:26:11.498Z,99098.84
2022-09-09T02:28:16.226Z,99096.75
2022-09-09T02:30:21.566Z,99104.97
2022-09-09T02:32:25.754Z,99101.13
2022-09-09T02:34:30.056Z,99102.22
2022-09-09T02:36:35.346Z,99107.91
2022-09-09T02:38:43.827Z,99110.63
2022-09-09T02:40:46.874Z,99108.50
2022-09-09T02:42:50.841Z,99114.81
2022-09-09T02:44:53.428Z,99112.88
2022-09-09T02:47:14.630Z,99115.09
2022-09-09T02:49:41.868Z,99122.00
2022-09-09T02:51:53.001Z,99118.59
2022-09-09T02:54:15.725Z,99117.16
2022-09-09T02:56:22.592Z,99123.72
2022-09-09T02:58:26.000Z,99125.66
2022-09-09T03:00:30.152Z,99134.88
2022-09-09T03:02:32.749Z,99124.09
2022-09-09T03:04:35.313Z,99128.97
2022-09-09T03:06:38.029Z,99129.00
2022-09-09T03:08:43.370Z,99120.44
2022-09-09T03:10:51.195Z,99136.72
2022-09-09T03:12:53.851Z,99131.75
2022-09-09T03:14:56.475Z,99134.16
2022-09-09T03:17:01.942Z,99138.34
2022-09-09T03:19:04.624Z,99141.88
2022-09-09T03:21:08.122Z,99147.03
2022-09-09T03:23:15.478Z,99152.19
2022-09-09T03:25:19.129Z,99138.00
2022-09-09T03:27:24.758Z,99146.91
2022-09-09T03:29:30.387Z,99142.88
2022-09-09T03:31:37.463Z,99148.00
2022-09-09T03:33:42.279Z,99150.28
2022-09-09T03:35:51.788Z,99151.69
2022-09-09T03:37:56.481Z,99148.50
2022-09-09T03:39:59.072Z,99154.31
2022-09-09T03:42:04.982Z,99153.47
2022-09-09T03:44:07.551Z,99143.19
2022-09-09T03:46:10.253Z,99157.09
2022-09-09T03:48:13.044Z,99154.69
2022-09-09T03:50:16.434Z,99152.44
2022-09-09T03:52:23.545Z,99158.72
2022-09-09T03:54:26.760Z,99155.19
2022-09-09T03:56:29.300Z,99155.03
2022-09-09T03:58:31.810Z,99158.75
2022-09-09T04:00:34.361Z,99155.06
2022-09-09T04:02:36.978Z,99161.97
2022-09-09T04:04:39.625Z,99161.03
2022-09-09T04:06:42.343Z,99172.53
2022-09-09T04:08:45.698Z,99170.75
2022-09-09T04:10:51.548Z,99160.59
2022-09-09T04:12:54.507Z,99173.19
2022-09-09T04:14:58.076Z,99173.84
2022-09-09T04:17:00.967Z,99169.16
2022-09-09T04:19:05.443Z,99176.44
2022-09-09T04:21:09.095Z,99180.44
2022-09-09T04:23:11.664Z,99189.81
2022-09-09T04:25:14.373Z,99181.91
2022-09-09T04:27:16.959Z,99185.78
2022-09-09T04:29:19.514Z,99179.97
2022-09-09T04:31:27.081Z,99193.56
2022-09-09T04:33:29.717Z,99189.97
2022-09-09T04:35:32.266Z,99189.53
2022-09-09T04:37:35.794Z,99192.59
2022-09-09T04:39:38.609Z,99190.84
2022-09-09T04:41:41.201Z,99191.56
2022-09-09T04:43:43.875Z,99198.03
2022-09-09T04:45:49.459Z,99199.19
2022-09-09T04:47:52.099Z,99203.38
2022-09-09T04:49:55.658Z,99206.94
2022-09-09T04:51:58.425Z,99211.47
2022-09-09T04:54:00.937Z,99204.41
2022-09-09T04:56:11.328Z,99195.13
2022-09-09T04:58:13.996Z,99209.41
2022-09-09T05:00:18.300Z,99204.56
2022-09-09T05:02:21.058Z,99207.78
2022-09-09T05:04:23.714Z,99210.50
2022-09-09T05:06:26.277Z,99207.25
2022-09-09T05:08:28.894Z,99207.19
2022-09-09T05:10:32.108Z,99209.38
2022-09-09T05:12:34.701Z,99211.63
2022-09-09T05:14:38.788Z,99213.00
2022-09-09T05:16:41.859Z,99215.44
2022-09-09T05:18:45.159Z,99223.16
2022-09-09T05:20:47.729Z,99218.03
2022-09-09T05:22:55.006Z,99222.31
2022-09-09T05:24:57.617Z,99214.22
2022-09-09T05:27:02.813Z,99227.06
2022-09-09T05:29:05.984Z,99229.94
2022-09-09T05:31:12.596Z,99228.34
2022-09-09T05:33:15.177Z,99236.13
2022-09-09T05:35:19.751Z,99236.53
2022-09-09T05:37:22.296Z,99230.28
2022-09-09T05:39:24.811Z,99236.84
2022-09-09T05:41:27.523Z,99232.69
2022-09-09T05:43:30.914Z,99233.19
2022-09-09T05:45:33.491Z,99246.69
2022-09-09T05:47:38.493Z,99250.72
2022-09-09T05:49:41.075Z,99251.47
2022-09-09T05:51:44.131Z,99260.59
2022-09-09T05:53:47.129Z,99258.22
2022-09-09T05:55:50.073Z,99269.97
2022-09-09T05:57:52.989Z,99269.00
2022-09-09T05:59:55.513Z,99262.22
2022-09-09T06:01:58.241Z,99258.56
2022-09-09T06:04:01.263Z,99267.56
2022-09-09T06:06:06.936Z,99252.09
2022-09-09T06:08:09.557Z,99256.13
2022-09-09T06:10:14.701Z,99265.44
2022-09-09T06:12:17.976Z,99268.69
2022-09-09T06:14:20.618Z,99268.56
2022-09-09T06:16:26.073Z,99272.28
2022-09-09T06:18:29.292Z,99268.94
2022-09-09T06:20:32.808Z,99277.03
2022-09-09T06:22:35.389Z,99274.28
2022-09-09T06:24:38.279Z,99287.28
2022-09-09T06:26:42.243Z,99279.53
2022-09-09T06:28:46.791Z,99279.81
2022-09-09T06:30:49.432Z,99280.63
2022-09-09T06:32:52.380Z,99287.53
2022-09-09T06:34:57.626Z,99286.34
2022-09-09T06:37:00.330Z,99293.13
2022-09-09T06:39:03.315Z,99292.00
2022-09-09T06:41:06.884Z,99293.28
2022-09-09T06:43:09.524Z,99301.22
2022-09-09T06:45:12.167Z,99288.03
2022-09-09T06:47:14.795Z,99307.81
2022-09-09T06:49:17.488Z,99309.13
2022-09-09T06:51:25.194Z,99303.94
2022-09-09T06:53:28.397Z,99310.94
2022-09-09T06:55:31.087Z,99303.91
2022-09-09T06:57:37.385Z,99302.31
2022-09-09T06:59:40.652Z,99315.97
2022-09-09T07:01:45.068Z,99316.16
2022-09-09T07:03:53.180Z,99306.81
2022-09-09T07:05:57.445Z,99306.69
2022-09-09T07:08:00.087Z,99311.97
2022-09-09T07:10:02.726Z,99313.53
2022-09-09T07:12:07.442Z,99317.56
2022-09-09T07:14:14.017Z,99329.44
2022-09-09T07:16:19.026Z,99319.13
2022-09-09T07:18:22.005Z,99319.72
2022-09-09T07:20:24.647Z,99326.28
2022-09-09T07:22:29.028Z,99327.16
2022-09-09T07:24:31.763Z,99327.66
2022-09-09T07:26:34.743Z,99320.63
2022-09-09T07:28:38.426Z,99329.00
2022-09-09T07:30:41.432Z,99331.75
2022-09-09T07:32:44.654Z,99327.97
2022-09-09T07:34:48.138Z,99340.13
2022-09-09T07:36:50.701Z,99326.53
2022-09-09T07:38:56.362Z,99334.78
2022-09-09T07:41:12.958Z,99328.59
2022-09-09T07:43:17.573Z,99329.44
2022-09-09T07:45:20.146Z,99342.59
2022-09-09T07:47:22.731Z,99344.81
2022-09-09T07:49:30.892Z,99343.16
2022-09-09T07:51:40.459Z,99347.13
2022-09-09T07:53:43.147Z,99347.31
2022-09-09T07:55:45.840Z,99353.97
2022-09-09T07:57:49.770Z,99356.41
2022-09-09T07:59:53.350Z,99358.72
2022-09-09T08:01:56.138Z,99358.94
2022-09-09T08:04:04.648Z,99363.47
2022-09-09T08:06:10.023Z,99359.44
2022-09-09T08:08:12.863Z,99360.72
2022-09-09T08:10:17.193Z,99367.19
2022-09-09T08:12:19.925Z,99363.50
2022-09-09T08:14:23.132Z,99364.13
2022-09-09T08:16:32.472Z,99372.66
2022-09-09T08:18:35.293Z,99368.31
2022-09-09T08:20:39.112Z,99370.25
2022-09-09T08:22:42.531Z,99371.84
2022-09-09T08:24:45.185Z,99374.28
2022-09-09T08:26:50.501Z,99381.00
2022-09-09T08:28:55.363Z,99385.53
2022-09-09T08:31:06.731Z,99378.47
2022-09-09T08:33:11.615Z,99392.81
2022-09-09T08:35:14.633Z,99382.56
2022-09-09T08:37:17.330Z,99388.41
2022-09-09T08:39:22.335Z,99384.41
2022-09-09T08:41:52.328Z,99381.88
2022-09-09T08:44:18.899Z,99385.09
2022-09-09T08:46:35.219Z,99387.22
2022-09-09T08:48:59.224Z,99389.50
2022-09-09T08:51:04.396Z,99387.13
2022-09-09T08:53:14.117Z,99393.47
2022-09-09T08:55:24.991Z,99392.47
2022-09-09T08:57:30.328Z,99405.00
2022-09-09T08:59:32.959Z,99400.63
2022-09-09T09:01:48.216Z,99393.09
2022-09-09T09:03:53.948Z,99406.03
2022-09-09T09:06:11.813Z,99414.31
2022-09-09T09:08:40.274Z,99418.00
2022-09-09T09:10:55.656Z,99409.34
2022-09-09T09:12:59.366Z,99410.28
2022-09-09T09:15:02.231Z,99409.19
2022-09-09T09:17:10.722Z,99410.06
2022-09-09T09:19:17.855Z,99417.00
2022-09-09T09:21:36.845Z,99424.03
2022-09-09T09:23:46.888Z,99424.59
2022-09-09T09:25:51.621Z,99418.16
2022-09-09T09:28:23.040Z,99429.06
2022-09-09T09:30:31.236Z,99432.41
2022-09-09T09:32:37.632Z,99433.66
2022-09-09T09:34:40.186Z,99431.56
2022-09-09T09:36:48.167Z,99428.88
2022-09-09T09:41:40.163Z,99436.16
2022-09-09T09:43:45.688Z,99439.38
2022-09-09T09:46:06.959Z,99442.44
2022-09-09T09:48:15.221Z,99426.16
2022-09-09T09:50:20.461Z,99446.19
2022-09-09T09:52:26.370Z,99437.66
2022-09-09T09:54:31.452Z,99448.91
2022-09-09T09:56:34.181Z,99444.53
2022-09-09T09:58:45.730Z,99456.19
2022-09-09T10:00:53.257Z,99448.63
2022-09-09T10:02:55.998Z,99445.75
2022-09-09T10:05:15.357Z,99448.66
2022-09-09T10:07:23.326Z,99456.44
2022-09-09T10:09:33.923Z,99455.97
2022-09-09T10:11:46.080Z,99462.38
2022-09-09T10:14:22.073Z,99465.53
2022-09-09T10:16:55.434Z,99459.97
2022-09-09T10:19:28.880Z,99461.72
2022-09-09T10:21:46.404Z,99460.50
2022-09-09T10:24:26.447Z,99458.44
2022-09-09T10:26:29.051Z,99460.25
2022-09-09T10:28:53.241Z,99466.69
2022-09-09T10:31:26.396Z,99468.13
2022-09-09T10:33:43.369Z,99461.09
2022-09-09T10:36:19.562Z,99465.94
2022-09-09T10:38:28.086Z,99462.38
2022-09-09T10:40:37.891Z,99465.28
2022-09-09T10:42:40.823Z,99470.50
2022-09-09T10:44:58.609Z,99475.34
2022-09-09T10:47:08.246Z,99473.94
2022-09-09T10:49:48.420Z,99475.56
2022-09-09T10:51:57.127Z,99470.13
2022-09-09T10:54:41.038Z,99469.31
2022-09-09T10:56:49.549Z,99469.50
2022-09-09T10:59:03.486Z,99472.13
2022-09-09T11:01:27.203Z,99471.63
2022-09-09T11:03:30.972Z,99480.53
2022-09-09T11:05:44.290Z,99484.28
2022-09-09T11:08:13.348Z,99482.97
2022-09-09T11:10:26.155Z,99483.63
2022-09-09T11:12:32.336Z,99469.88
2022-09-09T11:14:44.284Z,99479.59
2022-09-09T11:16:55.360Z,99478.59
2022-09-09T11:19:26.983Z,99476.41
2022-09-09T11:21:34.049Z,99476.00
2022-09-09T11:23:44.647Z,99483.47
2022-09-09T11:25:58.044Z,99478.41
2022-09-09T11:28:48.332Z,99476.09
2022-09-09T11:30:57.012Z,99477.91
2022-09-09T11:33:27.452Z,99486.44
2022-09-09T11:36:07.236Z,99480.94
2022-09-09T11:38:26.797Z,99481.97
2022-09-09T11:40:31.602Z,99488.28
2022-09-09T11:42:34.319Z,99486.03
2022-09-09T11:46:42.651Z,99494.56
2022-09-09T11:48:47.895Z,99484.41
2022-09-09T11:51:01.205Z,99492.22
2022-09-09T11:53:22.088Z,99483.97
2022-09-09T11:55:38.085Z,99502.53
2022-09-09T11:57:41.118Z,99500.28
2022-09-09T11:59:53.410Z,99496.06
2022-09-09T12:01:58.033Z,99508.22
2022-09-09T12:04:17.512Z,99501.09
2022-09-09T12:06:34.629Z,99504.81
2022-09-09T12:08:38.243Z,99506.59
2022-09-09T12:10:41.654Z,99515.16
2022-09-09T12:12:44.304Z,99514.38
2022-09-09T12:15:26.521Z,99518.06
2022-09-09T12:17:38.607Z,99512.91
2022-09-09T12:19:41.234Z,99513.38
2022-09-09T12:21:46.735Z,99513.38
2022-09-09T12:23:57.117Z,99513.06
2022-09-09T12:26:33.983Z,99508.06
2022-09-09T12:28:55.171Z,99520.81
2022-09-09T12:31:20.185Z,99517.25
2022-09-09T12:33:23.106Z,99517.91
2022-09-09T12:35:31.734Z,99519.66
2022-09-09T12:37:47.786Z,99513.38
2022-09-09T12:39:57.458Z,99513.19
2022-09-09T12:42:00.200Z,99513.84
2022-09-09T12:44:09.110Z,99521.78
2022-09-09T12:46:23.013Z,99516.13
2022-09-09T12:48:51.857Z,99517.56
2022-09-09T12:50:55.450Z,99517.72
2022-09-09T12:53:03.095Z,99523.56
2022-09-09T12:55:09.593Z,99529.38
2022-09-09T12:57:14.963Z,99529.38
2022-09-09T12:59:37.260Z,99525.66
2022-09-09T13:01:39.977Z,99526.28
2022-09-09T13:03:46.845Z,99534.19
2022-09-09T13:05:50.596Z,99531.78
2022-09-09T13:08:03.478Z,99536.00
2022-09-09T13:10:08.260Z,99539.19
2022-09-09T13:12:20.986Z,99534.28
2022-09-09T13:14:36.028Z,99540.25
2022-09-09T13:16:42.906Z,99540.25
2022-09-09T13:18:45.936Z,99544.25
2022-09-09T13:20:50.030Z,99557.69
2022-09-09T13:22:55.054Z,99552.50
2022-09-09T13:25:18.510Z,99553.78
2022-09-09T13:27:32.139Z,99554.63
2022-09-09T13:29:35.257Z,99557.38
2022-09-09T13:31:38.389Z,99551.38
2022-09-09T13:33:41.194Z,99557.38
2022-09-09T13:36:15.575Z,99553.78
2022-09-09T13:38:18.729Z,99559.28
2022-09-09T13:40:24.445Z,99562.81
2022-09-09T13:42:30.267Z,99566.22
2022-09-09T13:44:38.193Z,99563.31
2022-09-09T13:46:42.775Z,99563.31
2022-09-09T13:48:55.873Z,99572.66
2022-09-09T13:51:06.367Z,99573.50
2022-09-09T13:53:09.586Z,99565.38
2022-09-09T13:55:12.230Z,99571.00
2022-09-09T13:57:24.285Z,99572.47
2022-09-09T13:59:42.462Z,99569.84
2022-09-09T14:01:53.499Z,99578.41
2022-09-09T14:03:56.233Z,99572.91
2022-09-09T14:05:59.355Z,99578.72
2022-09-09T14:08:04.335Z,99580.13
2022-09-09T14:10:07.971Z,99584.81
2022-09-09T14:12:15.030Z,99579.44
2022-09-09T14:14:17.600Z,99586.56
2022-09-09T14:16:21.546Z,99580.25
2022-09-09T14:18:26.534Z,99592.69
2022-09-09T14:20:29.150Z,99588.13
2022-09-09T14:22:31.762Z,99592.97
2022-09-09T14:24:35.069Z,99584.56
2022-09-09T14:26:37.994Z,99591.69
2022-09-09T14:28:56.785Z,99593.72
2022-09-09T14:31:03.537Z,99594.84
2022-09-09T14:33:06.174Z,99596.59
2022-09-09T14:35:09.236Z,99593.34
2022-09-09T14:37:11.910Z,99590.00
2022-09-09T14:39:14.537Z,99595.16
2022-09-09T14:41:18.950Z,99599.34
2022-09-09T14:43:21.615Z,99590.44
2022-09-09T14:45:25.972Z,99595.59
2022-09-09T14:47:28.580Z,99596.94
2022-09-09T14:49:31.318Z,99602.50
2022-09-09T14:51:34.004Z,99598.34
2022-09-09T14:53:37.429Z,99604.16
2022-09-09T14:55:40.270Z,99610.28
2022-09-09T14:57:43.552Z,99607.84
2022-09-09T14:59:46.175Z,99611.81
2022-09-09T15:01:48.905Z,99617.28
2022-09-09T15:03:56.822Z,99604.34
2022-09-09T15:06:02.256Z,99615.47
2022-09-09T15:08:04.890Z,99609.03
2022-09-09T15:10:08.015Z,99616.75
2022-09-09T15:12:10.726Z,99618.19
2022-09-09T15:14:13.351Z,99629.16
2022-09-09T15:16:21.254Z,99619.59
2022-09-09T15:18:23.919Z,99621.84
2022-09-09T15:20:26.851Z,99627.94
2022-09-09T15:22:29.424Z,99631.81
2022-09-09T15:24:32.669Z,99624.50
2022-09-09T15:26:35.478Z,99632.72
2022-09-09T15:28:39.445Z,99636.56
2022-09-09T15:30:42.043Z,99647.53
2022-09-09T15:32:44.645Z,99642.88
2022-09-09T15:34:47.368Z,99651.13
2022-09-09T15:36:50.038Z,99635.38
2022-09-09T15:38:53.565Z,99653.34
2022-09-09T15:40:59.653Z,99652.53
2022-09-09T15:43:03.297Z,99661.69
2022-09-09T15:45:07.093Z,99658.03
2022-09-09T15:47:13.607Z,99661.38
2022-09-09T15:49:23.287Z,99670.09
2022-09-09T15:51:44.218Z,99664.59
2022-09-09T15:53:47.522Z,99675.56
2022-09-09T15:55:56.853Z,99672.66
2022-09-09T15:57:59.572Z,99675.91
2022-09-09T16:00:05.904Z,99675.56
2022-09-09T16:02:08.805Z,99680.56
2022-09-09T16:04:11.747Z,99685.84
2022-09-09T16:06:15.794Z,99682.59
2022-09-09T16:08:19.354Z,99689.91
2022-09-09T16:10:22.017Z,99691.34
2022-09-09T16:12:24.919Z,99693.56
2022-09-09T16:14:28.387Z,99696.59
2022-09-09T16:16:31.711Z,99693.84
2022-09-09T16:18:44.115Z,99690.31
2022-09-09T16:20:55.290Z,99695.63
2022-09-09T16:22:58.484Z,99690.84
2022-09-09T16:25:01.158Z,99693.06
2022-09-09T16:27:06.095Z,99699.28
2022-09-09T16:29:09.898Z,99707.78
2022-09-09T16:31:21.240Z,99704.53
2022-09-09T16:33:24.004Z,99707.28
2022-09-09T16:35:27.431Z,99704.03
2022-09-09T16:37:30.666Z,99713.88
2022-09-09T16:39:33.356Z,99708.69
2022-09-09T16:41:37.045Z,99707.78
2022-09-09T16:43:41.684Z,99714.59
2022-09-09T16:45:45.215Z,99716.53
2022-09-09T16:47:50.094Z,99718.75
2022-09-09T16:49:53.078Z,99720.16
2022-09-09T16:51:59.834Z,99720.56
2022-09-09T16:54:04.535Z,99723.59
2022-09-09T16:56:15.820Z,99728.91
2022-09-09T16:58:18.466Z,99728.66
2022-09-09T17:00:21.308Z,99734.75
2022-09-09T17:02:25.172Z,99732.78
2022-09-09T17:04:29.168Z,99739.94
2022-09-09T17:06:35.872Z,99728.72
2022-09-09T17:08:40.290Z,99740.09
2022-09-09T17:10:43.862Z,99736.91
2022-09-09T17:12:47.272Z,99743.38
2022-09-09T17:14:50.981Z,99740.13
2022-09-09T17:16:53.643Z,99744.28
2022-09-09T17:18:57.865Z,99739.31
2022-09-09T17:21:05.530Z,99742.84
2022-09-09T17:23:09.849Z,99742.22
2022-09-09T17:25:12.549Z,99744.75
2022-09-09T17:27:15.417Z,99748.59
2022-09-09T17:29:18.343Z,99752.13
2022-09-09T17:31:21.567Z,99746.75
2022-09-09T17:33:24.538Z,99752.84
2022-09-09T17:35:28.425Z,99751.19
2022-09-09T17:37:31.234Z,99749.16
2022-09-09T17:39:34.614Z,99752.47
2022-09-09T17:41:39.550Z,99752.78
2022-09-09T17:43:43.613Z,99752.53
2022-09-09T17:45:47.614Z,99751.28
2022-09-09T17:47:50.782Z,99755.16
2022-09-09T17:49:53.465Z,99752.19
2022-09-09T17:51:57.238Z,99755.00
2022-09-09T17:54:10.574Z,99754.25
2022-09-09T17:56:15.665Z,99744.13
2022-09-09T17:58:18.500Z,99751.81
2022-09-09T18:00:21.288Z,99758.38
2022-09-09T18:02:24.319Z,99725.00
2022-09-09T18:04:37.026Z,99750.03
2022-09-09T18:06:43.220Z,99742.41
2022-09-09T18:08:54.382Z,99753.44
2022-09-09T18:10:57.299Z,99746.09
2022-09-09T18:13:02.273Z,99742.31
2022-09-09T18:15:05.554Z,99751.13
2022-09-09T18:17:09.958Z,99745.00
2022-09-09T18:19:14.649Z,99747.47
2022-09-09T18:21:20.584Z,99751.19
2022-09-09T18:23:23.139Z,99758.59
2022-09-09T18:25:25.801Z,99769.34
2022-09-09T18:27:29.412Z,99760.34
2022-09-09T18:29:32.111Z,99762.25
2022-09-09T18:31:35.802Z,99756.84
2022-09-09T18:33:41.902Z,99762.88
2022-09-09T18:35:46.775Z,99766.22
2022-09-09T18:37:49.347Z,99757.50
2022-09-09T18:39:53.458Z,99760.28
2022-09-09T18:42:02.778Z,99767.38
2022-09-09T18:44:10.186Z,99764.94
2022-09-09T18:46:13.085Z,99758.38
2022-09-09T18:48:15.692Z,99766.28
2022-09-09T18:50:19.257Z,99762.72
2022-09-09T18:52:21.920Z,99766.84
2022-09-09T18:54:29.744Z,99760.63
2022-09-09T18:56:32.614Z,99769.97
2022-09-09T18:58:35.951Z,99763.75
2022-09-09T19:00:38.744Z,99767.63
2022-09-09T19:02:41.392Z,99761.91
2022-09-09T19:04:43.999Z,99767.41
2022-09-09T19:06:48.307Z,99771.53
2022-09-09T19:08:55.236Z,99769.38
2022-09-09T19:11:02.765Z,99772.16
2022-09-09T19:13:06.959Z,99775.19
2022-09-09T19:15:10.467Z,99785.00
2022-09-09T19:17:13.511Z,99779.81
2022-09-09T19:19:19.711Z,99782.84
2022-09-09T19:21:25.653Z,99776.28
2022-09-09T19:23:31.370Z,99784.25
2022-09-09T19:25:40.056Z,99781.50
2022-09-09T19:27:43.340Z,99776.84
2022-09-09T19:29:46.007Z,99783.66
2022-09-09T19:32:18.668Z,99783.41
2022-09-09T19:34:14.631Z,99780.97
2022-09-09T19:36:19.218Z,99783.47
2022-09-09T19:38:21.751Z,99787.00
2022-09-09T19:40:24.554Z,99790.03
2022-09-09T19:42:27.298Z,99782.41
2022-09-09T19:44:29.916Z,99788.97
2022-09-09T19:46:35.866Z,99785.44
2022-09-09T19:48:40.953Z,99790.09
2022-09-09T19:50:44.511Z,99789.53
2022-09-09T19:52:47.378Z,99794.47
2022-09-09T19:54:50.058Z,99790.09
2022-09-09T19:56:52.692Z,99790.41
2022-09-09T19:58:55.417Z,99769.50
2022-09-09T20:01:06.033Z,99795.59
2022-09-09T20:03:19.320Z,99800.84
2022-09-09T20:05:23.920Z,99799.75
2022-09-09T20:07:26.469Z,99804.41
2022-09-09T20:09:30.662Z,99796.50
2022-09-09T20:11:34.053Z,99809.59
2022-09-09T20:13:39.089Z,99803.13
2022-09-09T20:15:42.030Z,99793.81
2022-09-09T20:17:44.992Z,99799.56
2022-09-09T20:19:47.574Z,99792.72
2022-09-09T20:21:50.193Z,99806.66
2022-09-09T20:23:53.878Z,99796.28
2022-09-09T20:26:00.544Z,99803.66
2022-09-09T20:28:04.038Z,99800.94
2022-09-09T20:30:07.867Z,99798.75
2022-09-09T20:32:10.555Z,99804.47
2022-09-09T20:34:16.558Z,99799.84
2022-09-09T20:36:20.225Z,99794.38
2022-09-09T20:38:23.407Z,99798.22
2022-09-09T20:40:28.390Z,99801.53
2022-09-09T20:42:34.147Z,99798.25
2022-09-09T20:44:37.902Z,99795.31
2022-09-09T20:46:43.231Z,99798.84
2022-09-09T20:48:47.683Z,99796.44
2022-09-09T20:50:50.650Z,99798.06
2022-09-09T20:52:53.386Z,99799.72
2022-09-09T20:54:56.211Z,99796.19
2022-09-09T20:57:00.580Z,99792.13
2022-09-09T20:59:03.861Z,99791.59
2022-09-09T21:01:07.653Z,99797.88
2022-09-09T21:03:10.253Z,99789.97
2022-09-09T21:05:13.095Z,99786.19
2022-09-09T21:07:15.670Z,99788.63
2022-09-09T21:09:18.689Z,99789.13
2022-09-09T21:11:21.526Z,99787.53
2022-09-09T21:13:25.094Z,99790.25
2022-09-09T21:15:28.345Z,99792.72
2022-09-09T21:17:30.832Z,99796.00
2022-09-09T21:19:33.387Z,99797.97
2022-09-09T21:21:36.549Z,99801.53
2022-09-09T21:23:39.630Z,99796.06
2022-09-09T21:25:43.019Z,99800.72
2022-09-09T21:27:45.837Z,99799.41
2022-09-09T21:29:48.495Z,99801.03
2022-09-09T21:31:51.211Z,99799.16
2022-09-09T21:33:53.774Z,99801.88
2022-09-09T21:36:02.870Z,99801.38
2022-09-09T21:38:07.039Z,99797.00
2022-09-09T21:40:10.149Z,99798.09
2022-09-09T21:42:14.224Z,99800.28
2022-09-09T21:44:16.891Z,99812.81
2022-09-09T21:46:19.520Z,99801.38
2022-09-09T21:48:24.002Z,99802.75
2022-09-09T21:50:28.658Z,99801.41
2022-09-09T21:52:32.197Z,99804.13
2022-09-09T21:54:34.867Z,99808.75
2022-09-09T21:56:37.496Z,99791.06
2022-09-09T21:58:43.429Z,99796.25
2022-09-09T22:00:47.608Z,99807.41
2022-09-09T22:02:50.182Z,99804.69
2022-09-09T22:04:52.706Z,99814.78
2022-09-09T22:06:55.379Z,99811.22
2022-09-09T22:08:59.289Z,99810.69
2022-09-09T22:11:22.636Z,99812.88
2022-09-09T22:13:25.442Z,99816.69
2022-09-09T22:15:29.454Z,99818.63
2022-09-09T22:17:32.052Z,99809.09
2022-09-09T22:19:35.239Z,99812.63
2022-09-09T22:21:37.828Z,99813.19
2022-09-09T22:23:41.058Z,99817.78
2022-09-09T22:25:44.395Z,99811.84
2022-09-09T22:27:46.978Z,99814.03
2022-09-09T22:29:49.596Z,99812.13
2022-09-09T22:31:53.459Z,99811.59
2022-09-09T22:33:56.233Z,99817.84
2022-09-09T22:35:58.899Z,99815.91
2022-09-09T22:38:01.597Z,99820.28
2022-09-09T22:40:04.577Z,99823.28
2022-09-09T22:42:07.759Z,99821.13
2022-09-09T22:44:10.537Z,99828.19
2022-09-09T22:46:13.778Z,99822.19
2022-09-09T22:48:16.488Z,99809.44
2022-09-09T22:50:20.444Z,99823.84
2022-09-09T22:52:24.833Z,99830.38
2022-09-09T22:54:27.393Z,99818.16
2022-09-09T22:56:30.101Z,99826.84
2022-09-09T22:58:34.854Z,99825.50
2022-09-09T23:00:41.377Z,99823.84
2022-09-09T23:02:44.354Z,99825.53
2022-09-09T23:04:48.017Z,99822.25
2022-09-09T23:06:50.623Z,99824.97
2022-09-09T23:08:58.082Z,99827.97
2022-09-09T23:11:04.429Z,99824.69
2022-09-09T23:13:08.916Z,99825.25
2022-09-09T23:15:12.636Z,99821.41
2022-09-09T23:17:16.390Z,99817.34
2022-09-09T23:19:21.892Z,99822.78
2022-09-09T23:21:26.553Z,99828.22
2022-09-09T23:23:29.647Z,99824.44
2022-09-09T23:25:34.773Z,99802.66
2022-09-09T23:27:40.464Z,99823.31
2022-09-09T23:29:43.103Z,99823.31
2022-09-09T23:31:46.443Z,99825.53
2022-09-09T23:33:49.575Z,99827.13
2022-09-09T23:36:02.279Z,99825.78
2022-09-09T23:38:05.365Z,99830.69
2022-09-09T23:40:08.692Z,99829.59
2022-09-09T23:42:11.935Z,99832.59
2022-09-09T23:44:15.074Z,99830.69
2022-09-09T23:46:20.503Z,99818.47
2022-09-09T23:48:27.322Z,99823.34
2022-09-09T23:50:30.585Z,99817.91
2022-09-09T23:52:33.323Z,99823.09
2022-09-09T23:54:36.144Z,99822.78
2022-09-09T23:56:41.438Z,99823.34
2022-09-09T23:58:44.193Z,99827.16
